createdAt,value
2023-01-19T00:00:33.113Z,125.82
2023-01-19T00:06:26.022Z,124.47
2023-01-19T00:12:18.714Z,102.57
2023-01-19T00:18:11.403Z,108.13
2023-01-19T00:24:04.037Z,100.00
2023-01-19T00:29:57.066Z,96.72
2023-01-19T00:35:55.189Z,105.87
2023-01-19T00:42:06.560Z,108.10
2023-01-19T00:47:59.107Z,111.45
2023-01-19T00:53:53.147Z,102.13
2023-01-19T00:59:46.076Z,104.65
2023-01-19T01:05:41.485Z,107.63
2023-01-19T01:11:34.136Z,114.72
2023-01-19T01:17:27.022Z,110.93
2023-01-19T01:23:23.168Z,87.88
2023-01-19T01:29:16.557Z,59.28
2023-01-19T01:35:10.616Z,62.60
2023-01-19T01:41:03.390Z,52.88
2023-01-19T01:46:56.887Z,46.38
2023-01-19T01:53:14.075Z,36.42
2023-01-19T01:59:09.847Z,32.47
2023-01-19T02:05:11.195Z,28.30
2023-01-19T02:11:22.978Z,17.70
2023-01-19T02:17:14.868Z,14.30
2023-01-19T02:23:15.855Z,15.80
2023-01-19T02:29:12.059Z,13.93
2023-01-19T02:35:04.905Z,12.85
2023-01-19T02:41:00.157Z,11.60
2023-01-19T02:46:54.666Z,13.50
2023-01-19T02:52:47.507Z,13.70
2023-01-19T02:58:46.653Z,13.95
2023-01-19T03:04:54.730Z,13.63
2023-01-19T03:11:08.621Z,12.18
2023-01-19T03:17:06.465Z,11.10
2023-01-19T03:23:05.545Z,11.15
2023-01-19T03:29:02.348Z,11.90
2023-01-19T03:34:55.391Z,11.93
2023-01-19T03:40:48.445Z,11.40
2023-01-19T03:46:41.208Z,15.70
2023-01-19T03:52:36.458Z,12.27
2023-01-19T03:58:28.534Z,13.00
2023-01-19T04:04:20.406Z,14.80
2023-01-19T04:10:13.010Z,14.75
2023-01-19T04:16:06.910Z,18.73
2023-01-19T04:21:59.992Z,22.73
2023-01-19T04:27:54.165Z,21.15
2023-01-19T04:33:46.616Z,25.08
2023-01-19T04:39:38.700Z,30.65
2023-01-19T04:45:32.917Z,29.35
2023-01-19T04:51:25.765Z,32.58
2023-01-19T04:57:19.155Z,35.00
2023-01-19T05:03:11.936Z,31.58
2023-01-19T05:09:05.304Z,35.05
2023-01-19T05:14:57.674Z,33.33
2023-01-19T05:20:49.604Z,29.48
2023-01-19T05:26:42.694Z,32.55
2023-01-19T05:32:34.843Z,25.05
2023-01-19T05:38:35.299Z,19.90
2023-01-19T05:44:28.855Z,21.90
2023-01-19T05:50:21.713Z,22.25
2023-01-19T05:56:13.921Z,21.70
2023-01-19T06:02:07.977Z,22.27
2023-01-19T06:08:02.283Z,18.08
2023-01-19T06:13:54.921Z,18.15
2023-01-19T06:19:48.883Z,14.85
2023-01-19T06:25:40.963Z,17.70
2023-01-19T06:31:34.842Z,19.00
2023-01-19T06:37:28.565Z,25.83
2023-01-19T06:43:22.207Z,21.77
2023-01-19T06:55:10.871Z,19.08
2023-01-19T07:01:05.414Z,20.20
2023-01-19T07:06:59.083Z,21.48
2023-01-19T07:12:52.222Z,23.98
2023-01-19T07:18:45.499Z,19.45
2023-01-19T07:24:38.382Z,21.35
2023-01-19T07:30:33.649Z,18.45
2023-01-19T07:36:26.343Z,23.97
2023-01-19T07:42:19.521Z,23.00
2023-01-19T07:48:13.218Z,21.83
2023-01-19T07:54:08.602Z,21.75
2023-01-19T08:00:02.375Z,24.17
2023-01-19T08:06:06.327Z,17.05
2023-01-19T08:11:58.846Z,20.00
2023-01-19T08:17:59.527Z,23.17
2023-01-19T08:23:54.416Z,25.05
2023-01-19T08:29:47.164Z,22.90
2023-01-19T08:35:42.204Z,23.70
2023-01-19T08:41:34.268Z,28.23
2023-01-19T08:47:26.866Z,28.53
2023-01-19T08:53:21.268Z,21.90
2023-01-19T08:59:14.305Z,28.38
2023-01-19T09:05:07.539Z,28.52
2023-01-19T09:11:00.263Z,22.42
2023-01-19T09:16:53.356Z,24.65
2023-01-19T09:22:47.853Z,20.58
2023-01-19T09:28:40.733Z,20.10
2023-01-19T09:34:33.633Z,18.50
2023-01-19T09:40:28.387Z,21.35
2023-01-19T09:46:33.418Z,10.98
2023-01-19T09:52:26.644Z,16.25
2023-01-19T09:58:21.249Z,19.70
2023-01-19T10:04:24.624Z,16.40
2023-01-19T10:10:25.433Z,20.50
2023-01-19T10:16:41.903Z,17.58
2023-01-19T10:22:34.033Z,15.27
2023-01-19T10:28:27.745Z,14.23
2023-01-19T10:34:23.530Z,22.08
2023-01-19T10:40:25.695Z,17.92
2023-01-19T10:46:24.558Z,16.05
2023-01-19T10:52:29.236Z,18.63
2023-01-19T10:58:35.340Z,12.05
2023-01-19T11:04:30.129Z,12.23
2023-01-19T11:10:25.877Z,16.77
2023-01-19T11:16:35.066Z,15.50
2023-01-19T11:22:30.663Z,14.75
2023-01-19T11:28:31.886Z,18.17
2023-01-19T11:34:42.404Z,17.08
2023-01-19T11:40:36.137Z,16.10
2023-01-19T11:46:33.713Z,15.80
2023-01-19T11:52:41.236Z,14.32
2023-01-19T11:58:42.184Z,14.57
2023-01-19T12:04:39.703Z,11.98
2023-01-19T12:10:37.519Z,20.33
2023-01-19T12:16:33.069Z,17.90
2023-01-19T12:22:29.152Z,19.20
2023-01-19T12:28:28.312Z,20.17
2023-01-19T12:34:27.816Z,26.55
2023-01-19T12:40:19.482Z,16.85
2023-01-19T12:46:30.612Z,15.90
2023-01-19T12:52:30.054Z,14.70
2023-01-19T12:58:25.689Z,20.67
2023-01-19T13:04:33.313Z,15.27
2023-01-19T13:11:00.223Z,18.83
2023-01-19T13:17:00.902Z,16.00
2023-01-19T13:23:19.053Z,18.98
2023-01-19T13:29:25.568Z,17.38
2023-01-19T13:35:20.492Z,14.57
2023-01-19T13:41:19.415Z,12.85
2023-01-19T13:47:19.528Z,15.63
2023-01-19T13:53:20.791Z,18.90
2023-01-19T13:59:13.832Z,16.33
2023-01-19T14:05:26.264Z,15.82
2023-01-19T14:11:19.520Z,17.98
2023-01-19T14:17:31.253Z,15.83
2023-01-19T14:23:42.950Z,12.65
2023-01-19T14:29:38.292Z,18.55
2023-01-19T14:35:31.573Z,16.33
2023-01-19T14:41:37.886Z,20.95
2023-01-19T14:47:35.924Z,17.77
2023-01-19T14:53:30.067Z,16.27
2023-01-19T14:59:22.223Z,27.33
2023-01-19T15:05:15.719Z,33.92
2023-01-19T15:11:22.094Z,31.25
2023-01-19T15:17:25.761Z,38.38
2023-01-19T15:23:18.189Z,27.70
2023-01-19T15:29:22.352Z,43.20
2023-01-19T15:35:20.014Z,36.80
2023-01-19T15:41:30.963Z,29.70
2023-01-19T15:47:24.435Z,36.92
2023-01-19T15:53:20.252Z,40.90
2023-01-19T15:59:12.456Z,33.72
2023-01-19T16:05:06.246Z,27.93
2023-01-19T16:16:50.566Z,73.90
2023-01-19T16:22:43.526Z,79.60
2023-01-19T16:28:38.071Z,78.57
2023-01-19T16:34:30.663Z,114.07
2023-01-19T16:40:23.543Z,110.55
2023-01-19T16:46:31.159Z,97.40
2023-01-19T16:52:23.418Z,76.10
2023-01-19T16:58:15.807Z,68.53
2023-01-19T17:04:08.751Z,69.22
2023-01-19T17:10:02.121Z,69.45
2023-01-19T17:16:00.803Z,75.97
2023-01-19T17:21:53.562Z,67.95
2023-01-19T17:27:48.834Z,101.97
2023-01-19T17:33:44.955Z,100.60
2023-01-19T17:39:39.619Z,89.07
2023-01-19T17:45:36.612Z,85.45
2023-01-19T17:51:29.373Z,93.95
2023-01-19T17:57:21.810Z,104.40
2023-01-19T18:03:18.683Z,82.72
2023-01-19T18:09:11.445Z,77.60
2023-01-19T18:15:08.844Z,85.60
2023-01-19T18:21:04.809Z,77.35
2023-01-19T18:26:57.872Z,96.53
2023-01-19T18:32:52.379Z,105.78
2023-01-19T18:38:46.004Z,108.93
2023-01-19T18:44:38.942Z,109.15
2023-01-19T18:50:31.921Z,107.85
2023-01-19T19:02:17.604Z,115.32
2023-01-19T19:08:10.135Z,115.40
2023-01-19T19:14:03.318Z,185.88
2023-01-19T19:19:55.851Z,81.75
2023-01-19T19:31:43.151Z,123.70
2023-01-19T19:43:28.853Z,108.97
2023-01-19T19:49:21.712Z,105.53
2023-01-19T19:55:14.976Z,111.53
2023-01-19T20:01:10.939Z,110.57
2023-01-19T20:07:03.775Z,104.35
2023-01-19T20:12:56.055Z,115.87
2023-01-19T20:18:54.454Z,123.25
2023-01-19T20:24:52.675Z,95.93
2023-01-19T20:30:46.211Z,96.00
2023-01-19T20:36:38.935Z,98.85
2023-01-19T20:42:30.643Z,97.32
2023-01-19T20:48:23.343Z,108.40
2023-01-19T20:54:19.503Z,133.68
2023-01-19T21:00:12.669Z,118.15
2023-01-19T21:11:58.040Z,114.43
2023-01-19T21:17:50.004Z,117.25
2023-01-19T21:29:37.473Z,130.50
2023-01-19T21:35:31.088Z,141.02
2023-01-19T21:41:25.671Z,166.88
2023-01-19T21:47:18.343Z,156.07
2023-01-19T21:53:11.773Z,140.32
2023-01-19T21:59:05.342Z,130.80
2023-01-19T22:04:58.424Z,132.68
2023-01-19T22:10:51.126Z,111.60
2023-01-19T22:16:43.361Z,125.43
2023-01-19T22:22:37.363Z,137.13
2023-01-19T22:28:30.612Z,135.60
2023-01-19T22:34:23.451Z,142.93
2023-01-19T22:40:16.770Z,115.43
2023-01-19T22:52:02.183Z,121.85
2023-01-19T22:57:54.390Z,120.60
2023-01-19T23:03:47.687Z,118.25
2023-01-19T23:09:40.462Z,116.55
2023-01-19T23:21:29.722Z,114.07
2023-01-19T23:27:23.141Z,107.05
2023-01-19T23:33:15.733Z,113.50
2023-01-19T23:39:13.863Z,114.78
2023-01-19T23:45:07.389Z,123.25
2023-01-19T23:56:52.656Z,109.80
